createdAt,value
2022-12-31T00:00:13.850Z,100153.97
2022-12-31T00:03:00.996Z,100151.47
2022-12-31T00:05:32.769Z,100148.10
2022-12-31T00:07:59.524Z,100146.22
2022-12-31T00:10:26.252Z,100146.66
2022-12-31T00:12:54.957Z,100140.59
2022-12-31T00:15:21.577Z,100128.40
2022-12-31T00:17:48.031Z,100133.73
2022-12-31T00:20:14.492Z,100135.38
2022-12-31T00:22:41.102Z,100132.13
2022-12-31T00:25:08.104Z,100134.72
2022-12-31T00:27:34.539Z,100127.30
2022-12-31T00:30:04.639Z,100129.00
2022-12-31T00:32:31.546Z,100125.69
2022-12-31T00:34:58.445Z,100127.32
2022-12-31T00:37:25.225Z,100124.30
2022-12-31T00:39:51.696Z,100123.50
2022-12-31T00:42:18.203Z,100129.32
2022-12-31T00:44:44.725Z,100130.28
2022-12-31T00:47:11.199Z,100135.23
2022-12-31T00:49:37.704Z,100134.41
2022-12-31T00:52:04.865Z,100147.09
2022-12-31T00:54:31.298Z,100149.95
2022-12-31T00:56:57.880Z,100149.45
2022-12-31T00:59:24.755Z,100151.81
2022-12-31T01:01:51.304Z,100156.20
2022-12-31T01:04:20.197Z,100148.80
2022-12-31T01:06:47.047Z,100154.60
2022-12-31T01:09:13.970Z,100158.75
2022-12-31T01:11:40.692Z,100160.95
2022-12-31T01:14:09.532Z,100158.90
2022-12-31T01:16:40.216Z,100162.28
2022-12-31T01:19:09.566Z,100155.54
2022-12-31T01:21:39.022Z,100148.75
2022-12-31T01:24:05.794Z,100145.28
2022-12-31T01:26:32.377Z,100141.88
2022-12-31T01:28:59.147Z,100135.21
2022-12-31T01:31:25.766Z,100131.60
2022-12-31T01:33:52.936Z,100128.92
2022-12-31T01:36:27.434Z,100136.59
2022-12-31T01:38:55.473Z,100139.54
2022-12-31T01:41:32.274Z,100137.73
2022-12-31T01:44:01.442Z,100147.61
2022-12-31T01:46:37.074Z,100154.33
2022-12-31T01:49:15.489Z,100167.65
2022-12-31T01:51:43.645Z,100174.38
2022-12-31T01:54:12.490Z,100175.92
2022-12-31T01:56:39.981Z,100173.59
2022-12-31T01:59:08.407Z,100178.52
2022-12-31T02:01:36.938Z,100181.04
2022-12-31T02:04:07.454Z,100188.11
2022-12-31T02:06:44.157Z,100177.73
2022-12-31T02:09:11.778Z,100184.52
2022-12-31T02:11:38.453Z,100187.55
2022-12-31T02:14:09.795Z,100187.66
2022-12-31T02:16:58.505Z,100191.30
2022-12-31T02:19:57.299Z,100191.48
2022-12-31T02:23:01.062Z,100191.92
2022-12-31T02:25:30.777Z,100181.95
2022-12-31T02:28:12.234Z,100180.67
2022-12-31T02:30:39.912Z,100181.91
2022-12-31T02:33:12.267Z,100183.67
2022-12-31T02:35:58.478Z,100178.87
2022-12-31T02:38:30.531Z,100181.54
2022-12-31T02:40:57.207Z,100181.52
2022-12-31T02:43:24.200Z,100186.61
2022-12-31T02:46:17.746Z,100186.11
2022-12-31T02:48:55.433Z,100198.16
2022-12-31T02:51:47.937Z,100202.36
2022-12-31T02:54:51.956Z,100202.13
2022-12-31T02:57:38.802Z,100198.06
2022-12-31T03:00:29.706Z,100193.42
2022-12-31T03:02:57.375Z,100184.79
2022-12-31T03:05:27.072Z,100186.74
2022-12-31T03:07:53.774Z,100191.20
2022-12-31T03:10:20.520Z,100192.87
2022-12-31T03:12:47.636Z,100195.48
2022-12-31T03:15:22.776Z,100198.89
2022-12-31T03:18:07.672Z,100198.73
2022-12-31T03:20:58.282Z,100204.25
2022-12-31T03:23:38.947Z,100204.80
2022-12-31T03:26:10.499Z,100204.23
2022-12-31T03:28:39.610Z,100204.34
2022-12-31T03:31:06.838Z,100211.33
2022-12-31T03:33:38.639Z,100215.25
2022-12-31T03:36:10.172Z,100218.60
2022-12-31T03:38:36.925Z,100222.09
2022-12-31T03:41:03.215Z,100235.36
2022-12-31T03:43:29.822Z,100241.41
2022-12-31T03:45:59.082Z,100246.34
2022-12-31T03:48:25.497Z,100245.36
2022-12-31T03:50:52.123Z,100244.16
2022-12-31T03:53:18.833Z,100243.09
2022-12-31T03:55:45.257Z,100235.13
2022-12-31T03:58:11.878Z,100237.52
2022-12-31T04:00:38.491Z,100234.34
2022-12-31T04:03:07.939Z,100224.84
2022-12-31T04:05:34.751Z,100222.81
2022-12-31T04:08:06.938Z,100221.23
2022-12-31T04:10:33.300Z,100222.53
2022-12-31T04:13:03.629Z,100217.52
2022-12-31T04:15:31.149Z,100215.49
2022-12-31T04:17:57.471Z,100217.19
2022-12-31T04:20:24.196Z,100218.75
2022-12-31T04:22:50.786Z,100213.48
2022-12-31T04:25:17.185Z,100209.41
2022-12-31T04:27:43.930Z,100201.73
2022-12-31T04:30:14.143Z,100193.60
2022-12-31T04:32:41.327Z,100190.54
2022-12-31T04:35:08.974Z,100191.75
2022-12-31T04:37:35.836Z,100191.72
2022-12-31T04:40:06.240Z,100201.09
2022-12-31T04:42:34.372Z,100211.08
2022-12-31T04:45:00.931Z,100222.65
2022-12-31T04:47:27.451Z,100227.14
2022-12-31T04:49:53.924Z,100224.09
2022-12-31T04:52:20.527Z,100222.23
2022-12-31T04:54:46.919Z,100223.54
2022-12-31T04:57:13.628Z,100214.88
2022-12-31T04:59:43.319Z,100207.20
2022-12-31T05:02:09.840Z,100210.03
2022-12-31T05:04:36.632Z,100207.38
2022-12-31T05:07:03.281Z,100210.34
2022-12-31T05:09:30.308Z,100210.85
2022-12-31T05:11:56.870Z,100212.13
2022-12-31T05:14:23.263Z,100210.56
2022-12-31T05:16:50.052Z,100209.23
2022-12-31T05:19:17.109Z,100206.38
2022-12-31T05:21:43.529Z,100207.42
2022-12-31T05:24:09.975Z,100209.25
2022-12-31T05:26:36.473Z,100213.89
2022-12-31T05:29:02.891Z,100213.30
2022-12-31T05:31:29.623Z,100215.71
2022-12-31T05:33:56.447Z,100223.67
2022-12-31T05:36:22.868Z,100220.98
2022-12-31T05:38:49.578Z,100225.34
2022-12-31T05:41:16.375Z,100226.72
2022-12-31T05:43:42.658Z,100223.95
2022-12-31T05:46:09.077Z,100216.41
2022-12-31T05:48:36.331Z,100211.09
2022-12-31T05:51:02.597Z,100205.78
2022-12-31T05:53:29.133Z,100209.60
2022-12-31T05:55:55.931Z,100222.06
2022-12-31T05:58:22.640Z,100225.69
2022-12-31T06:00:48.970Z,100225.18
2022-12-31T06:03:15.678Z,100224.09
2022-12-31T06:05:44.789Z,100221.81
2022-12-31T06:08:11.636Z,100219.05
2022-12-31T06:10:39.357Z,100220.20
2022-12-31T06:13:06.109Z,100224.41
2022-12-31T06:15:32.395Z,100227.98
2022-12-31T06:17:59.056Z,100224.45
2022-12-31T06:20:25.576Z,100226.06
2022-12-31T06:22:52.018Z,100226.92
2022-12-31T06:25:18.624Z,100229.98
2022-12-31T06:27:45.395Z,100229.35
2022-12-31T06:30:11.961Z,100238.73
2022-12-31T06:32:40.063Z,100248.21
2022-12-31T06:35:07.043Z,100244.41
2022-12-31T06:37:33.407Z,100241.89
2022-12-31T06:40:00.655Z,100245.48
2022-12-31T06:42:30.990Z,100239.42
2022-12-31T06:44:58.398Z,100233.36
2022-12-31T06:47:25.491Z,100234.70
2022-12-31T06:49:52.459Z,100239.06
2022-12-31T06:52:18.813Z,100233.59
2022-12-31T06:54:45.669Z,100218.51
2022-12-31T06:57:12.494Z,100224.82
2022-12-31T06:59:39.288Z,100226.20
2022-12-31T07:02:33.295Z,100232.98
2022-12-31T07:05:06.301Z,100238.45
2022-12-31T07:07:36.551Z,100236.99
2022-12-31T07:10:29.418Z,100246.07
2022-12-31T07:13:24.401Z,100254.34
2022-12-31T07:16:00.583Z,100250.81
2022-12-31T07:18:38.790Z,100254.45
2022-12-31T07:21:13.445Z,100248.73
2022-12-31T07:23:41.392Z,100263.55
2022-12-31T07:26:38.455Z,100260.04
2022-12-31T07:29:12.996Z,100256.66
2022-12-31T07:31:48.440Z,100251.86
2022-12-31T07:34:42.660Z,100257.36
2022-12-31T07:37:13.476Z,100253.89
2022-12-31T07:40:12.591Z,100261.63
2022-12-31T07:43:03.021Z,100261.83
2022-12-31T07:45:40.425Z,100261.70
2022-12-31T07:48:20.911Z,100261.27
2022-12-31T07:50:48.139Z,100253.23
2022-12-31T07:53:14.813Z,100258.88
2022-12-31T07:55:41.092Z,100255.57
2022-12-31T07:58:57.179Z,100260.05
2022-12-31T08:01:51.951Z,100270.91
2022-12-31T08:04:44.878Z,100279.59
2022-12-31T08:07:39.545Z,100278.98
2022-12-31T08:10:18.603Z,100278.41
2022-12-31T08:12:46.495Z,100286.83
2022-12-31T08:15:15.095Z,100288.64
2022-12-31T08:17:41.944Z,100283.91
2022-12-31T08:20:13.831Z,100282.28
2022-12-31T08:23:11.674Z,100278.02
2022-12-31T08:25:58.886Z,100275.77
2022-12-31T08:28:55.530Z,100281.66
2022-12-31T08:31:51.353Z,100281.15
2022-12-31T08:34:25.079Z,100286.77
2022-12-31T08:37:10.708Z,100285.48
2022-12-31T08:40:09.226Z,100287.94
2022-12-31T08:43:21.712Z,100290.16
2022-12-31T08:45:50.976Z,100287.16
2022-12-31T08:48:29.999Z,100281.46
2022-12-31T08:50:57.090Z,100280.80
2022-12-31T08:53:23.975Z,100274.73
2022-12-31T08:55:58.330Z,100274.57
2022-12-31T08:58:47.344Z,100278.52
2022-12-31T09:01:14.470Z,100276.30
2022-12-31T09:04:23.583Z,100270.52
2022-12-31T09:06:58.040Z,100264.88
2022-12-31T09:09:37.661Z,100258.05
2022-12-31T09:12:59.683Z,100253.11
2022-12-31T09:15:33.890Z,100260.73
2022-12-31T09:18:00.538Z,100258.15
2022-12-31T09:20:42.187Z,100265.92
2022-12-31T09:23:09.983Z,100264.02
2022-12-31T09:25:42.617Z,100264.34
2022-12-31T09:28:15.861Z,100266.17
2022-12-31T09:30:53.246Z,100271.02
2022-12-31T09:33:32.025Z,100270.95
2022-12-31T09:36:06.099Z,100264.65
2022-12-31T09:38:47.691Z,100271.39
2022-12-31T09:41:35.615Z,100265.41
2022-12-31T09:44:23.500Z,100260.69
2022-12-31T09:47:11.888Z,100259.46
2022-12-31T09:49:57.053Z,100263.95
2022-12-31T09:52:53.061Z,100262.77
2022-12-31T09:55:47.362Z,100256.21
2022-12-31T09:58:24.244Z,100254.80
2022-12-31T10:01:28.614Z,100259.83
2022-12-31T10:04:04.630Z,100260.34
2022-12-31T10:06:31.242Z,100265.70
2022-12-31T10:09:09.845Z,100262.60
2022-12-31T10:11:48.114Z,100258.84
2022-12-31T10:14:46.932Z,100248.53
2022-12-31T10:17:23.083Z,100250.82
2022-12-31T10:19:57.646Z,100253.10
2022-12-31T10:22:33.232Z,100251.20
2022-12-31T10:25:03.280Z,100247.83
2022-12-31T10:27:49.305Z,100243.40
2022-12-31T10:30:18.947Z,100238.84
2022-12-31T10:33:04.375Z,100236.39
2022-12-31T10:35:52.725Z,100237.71
2022-12-31T10:38:40.303Z,100238.30
2022-12-31T10:41:26.013Z,100238.33
2022-12-31T10:44:30.662Z,100228.35
2022-12-31T10:47:09.960Z,100223.73
2022-12-31T10:49:51.567Z,100219.77
2022-12-31T10:52:39.779Z,100213.45
2022-12-31T10:55:36.245Z,100213.21
2022-12-31T10:58:57.353Z,100207.98
2022-12-31T11:01:23.623Z,100207.69
2022-12-31T11:04:02.279Z,100213.98
2022-12-31T11:06:45.182Z,100216.34
2022-12-31T11:09:52.672Z,100218.95
2022-12-31T11:12:46.418Z,100223.73
2022-12-31T11:15:17.887Z,100218.73
2022-12-31T11:18:03.547Z,100219.16
2022-12-31T11:20:47.387Z,100219.03
2022-12-31T11:23:32.291Z,100212.85
2022-12-31T11:26:36.644Z,100210.94
2022-12-31T11:29:12.532Z,100204.75
2022-12-31T11:31:51.560Z,100202.83
2022-12-31T11:34:42.595Z,100200.22
2022-12-31T11:37:41.909Z,100200.77
2022-12-31T11:40:23.483Z,100195.40
2022-12-31T11:43:11.320Z,100195.07
2022-12-31T11:46:09.286Z,100196.31
2022-12-31T11:48:57.158Z,100194.64
2022-12-31T11:51:39.206Z,100187.50
2022-12-31T11:54:27.425Z,100189.31
2022-12-31T11:57:03.951Z,100180.41
2022-12-31T11:59:30.800Z,100189.20
2022-12-31T12:02:19.163Z,100188.00
2022-12-31T12:04:48.740Z,100198.22
2022-12-31T12:07:16.130Z,100190.80
2022-12-31T12:09:44.590Z,100186.34
2022-12-31T12:12:11.936Z,100182.19
2022-12-31T12:14:41.098Z,100186.67
2022-12-31T12:17:09.996Z,100185.48
2022-12-31T12:19:43.605Z,100188.64
2022-12-31T12:22:13.160Z,100192.80
2022-12-31T12:24:40.317Z,100195.16
2022-12-31T12:27:20.815Z,100202.17
2022-12-31T12:29:47.998Z,100203.58
2022-12-31T12:32:17.729Z,100204.23
2022-12-31T12:34:49.416Z,100208.27
2022-12-31T12:37:32.494Z,100213.58
2022-12-31T12:40:05.212Z,100216.56
2022-12-31T12:42:32.013Z,100214.84
2022-12-31T12:45:07.202Z,100216.29
2022-12-31T12:47:34.299Z,100208.40
2022-12-31T12:50:00.854Z,100217.93
2022-12-31T12:52:42.666Z,100216.94
2022-12-31T12:55:11.891Z,100215.98
2022-12-31T12:57:59.987Z,100211.43
2022-12-31T13:01:03.419Z,100210.65
2022-12-31T13:04:31.930Z,100216.63
2022-12-31T13:07:13.345Z,100215.68
2022-12-31T13:09:56.635Z,100216.15
2022-12-31T13:12:23.151Z,100220.61
2022-12-31T13:15:12.528Z,100222.15
2022-12-31T13:18:10.422Z,100227.27
2022-12-31T13:20:56.787Z,100219.60
2022-12-31T13:23:37.869Z,100225.91
2022-12-31T13:26:23.619Z,100221.31
2022-12-31T13:28:51.929Z,100223.45
2022-12-31T13:31:27.157Z,100228.90
2022-12-31T13:33:58.185Z,100230.89
2022-12-31T13:36:26.936Z,100236.51
2022-12-31T13:38:58.979Z,100239.52
2022-12-31T13:41:33.479Z,100239.67
2022-12-31T13:44:34.819Z,100233.70
2022-12-31T13:47:23.560Z,100240.08
2022-12-31T13:49:55.733Z,100243.55
2022-12-31T13:52:28.610Z,100244.50
2022-12-31T13:54:58.133Z,100250.86
2022-12-31T13:57:39.933Z,100247.33
2022-12-31T14:00:16.884Z,100244.08
2022-12-31T14:03:21.053Z,100244.92
2022-12-31T14:05:59.469Z,100245.87
2022-12-31T14:08:26.603Z,100247.21
2022-12-31T14:11:25.249Z,100248.01
2022-12-31T14:14:02.883Z,100250.22
2022-12-31T14:17:01.550Z,100254.42
2022-12-31T14:19:33.262Z,100250.09
2022-12-31T14:22:04.495Z,100252.69
2022-12-31T14:24:34.065Z,100253.41
2022-12-31T14:27:04.360Z,100254.33
2022-12-31T14:29:41.177Z,100254.08
2022-12-31T14:32:34.945Z,100255.42
2022-12-31T14:35:20.612Z,100258.02
2022-12-31T14:37:50.485Z,100264.04
2022-12-31T14:40:37.414Z,100264.52
2022-12-31T14:43:27.277Z,100260.65
2022-12-31T14:46:24.963Z,100257.60
2022-12-31T14:49:04.463Z,100262.13
2022-12-31T14:51:31.208Z,100258.15
2022-12-31T14:53:58.182Z,100255.11
2022-12-31T14:56:38.540Z,100254.45
2022-12-31T14:59:22.887Z,100253.00
2022-12-31T15:01:49.581Z,100254.73
2022-12-31T15:04:16.134Z,100256.95
2022-12-31T15:07:21.304Z,100259.48
2022-12-31T15:10:03.538Z,100256.17
2022-12-31T15:12:48.160Z,100252.67
2022-12-31T15:15:24.575Z,100255.27
2022-12-31T15:18:12.148Z,100254.08
2022-12-31T15:20:54.212Z,100251.59
2022-12-31T15:23:29.429Z,100258.62
2022-12-31T15:26:01.687Z,100246.77
2022-12-31T15:28:37.022Z,100248.36
2022-12-31T15:31:17.725Z,100251.64
2022-12-31T15:34:24.234Z,100272.48
2022-12-31T15:36:53.106Z,100278.39
2022-12-31T15:39:42.232Z,100283.41
2022-12-31T15:42:47.247Z,100283.66
2022-12-31T15:45:24.281Z,100283.11
2022-12-31T15:47:58.758Z,100284.88
2022-12-31T15:50:25.897Z,100285.70
2022-12-31T15:52:55.578Z,100286.05
2022-12-31T15:55:42.497Z,100292.89
2022-12-31T15:58:15.857Z,100290.61
2022-12-31T16:01:03.994Z,100290.52
2022-12-31T16:03:31.172Z,100303.59
2022-12-31T16:06:01.053Z,100310.67
2022-12-31T16:08:31.713Z,100316.77
2022-12-31T16:10:58.464Z,100312.68
2022-12-31T16:13:25.855Z,100318.01
2022-12-31T16:16:05.980Z,100323.09
2022-12-31T16:18:39.819Z,100322.54
2022-12-31T16:21:22.967Z,100330.65
2022-12-31T16:23:54.027Z,100330.39
2022-12-31T16:26:22.989Z,100333.41
2022-12-31T16:28:49.409Z,100332.65
2022-12-31T16:31:19.007Z,100332.66
2022-12-31T16:33:46.561Z,100337.95
2022-12-31T16:36:22.239Z,100337.65
2022-12-31T16:38:49.097Z,100343.88
2022-12-31T16:41:20.212Z,100340.23
2022-12-31T16:43:49.998Z,100340.49
2022-12-31T16:46:26.312Z,100351.28
2022-12-31T16:48:54.617Z,100352.42
2022-12-31T16:51:24.312Z,100350.42
2022-12-31T16:53:51.548Z,100350.84
2022-12-31T16:56:28.782Z,100355.20
2022-12-31T16:59:01.907Z,100358.20
2022-12-31T17:01:31.457Z,100362.64
2022-12-31T17:04:00.087Z,100359.16
2022-12-31T17:06:27.790Z,100350.14
2022-12-31T17:08:59.173Z,100359.16
2022-12-31T17:11:52.807Z,100362.52
2022-12-31T17:14:25.119Z,100361.81
2022-12-31T17:17:05.025Z,100368.33
2022-12-31T17:19:38.833Z,100369.66
2022-12-31T17:22:09.951Z,100369.95
2022-12-31T17:24:37.472Z,100375.86
2022-12-31T17:27:07.814Z,100377.73
2022-12-31T17:29:34.905Z,100376.17
2022-12-31T17:32:04.949Z,100381.08
2022-12-31T17:34:39.575Z,100379.06
2022-12-31T17:37:06.130Z,100380.77
2022-12-31T17:39:40.128Z,100380.14
2022-12-31T17:42:08.415Z,100377.90
2022-12-31T17:44:38.265Z,100386.86
2022-12-31T17:47:05.687Z,100392.14
2022-12-31T17:49:32.692Z,100387.05
2022-12-31T17:51:59.072Z,100385.27
2022-12-31T17:54:25.623Z,100386.10
2022-12-31T17:56:53.062Z,100388.53
2022-12-31T17:59:24.748Z,100391.08
2022-12-31T18:01:51.360Z,100398.00
2022-12-31T18:04:18.445Z,100401.70
2022-12-31T18:06:45.115Z,100399.33
2022-12-31T18:09:11.609Z,100405.08
2022-12-31T18:11:39.703Z,100406.90
2022-12-31T18:14:06.718Z,100408.07
2022-12-31T18:16:33.624Z,100407.40
2022-12-31T18:19:00.590Z,100410.63
2022-12-31T18:21:31.929Z,100412.29
2022-12-31T18:26:25.830Z,100412.06
2022-12-31T18:28:52.776Z,100414.59
2022-12-31T18:31:24.514Z,100409.31
2022-12-31T18:33:52.634Z,100406.86
2022-12-31T18:36:20.652Z,100401.56
2022-12-31T18:38:47.194Z,100402.84
2022-12-31T18:41:22.180Z,100406.44
2022-12-31T18:43:48.849Z,100405.23
2022-12-31T18:46:19.689Z,100403.62
2022-12-31T18:48:46.488Z,100401.33
2022-12-31T18:51:15.198Z,100400.70
2022-12-31T18:53:41.778Z,100393.98
2022-12-31T18:56:17.285Z,100398.00
2022-12-31T18:58:44.300Z,100397.55
2022-12-31T19:01:34.061Z,100394.64
2022-12-31T19:04:03.306Z,100389.83
2022-12-31T19:06:29.960Z,100390.81
2022-12-31T19:08:56.384Z,100394.10
2022-12-31T19:11:23.266Z,100400.73
2022-12-31T19:13:50.100Z,100401.05
2022-12-31T19:16:17.290Z,100394.27
2022-12-31T19:18:44.486Z,100390.89
2022-12-31T19:21:16.286Z,100392.95
2022-12-31T19:23:42.977Z,100392.41
2022-12-31T19:26:14.985Z,100392.44
2022-12-31T19:28:41.906Z,100394.48
2022-12-31T19:31:08.358Z,100392.27
2022-12-31T19:33:34.936Z,100393.55
2022-12-31T19:36:01.368Z,100387.84
2022-12-31T19:38:33.687Z,100391.75
2022-12-31T19:41:01.196Z,100392.40
2022-12-31T19:43:27.634Z,100386.96
2022-12-31T19:45:53.961Z,100388.36
2022-12-31T19:48:28.557Z,100393.63
2022-12-31T19:50:56.934Z,100391.68
2022-12-31T19:53:25.633Z,100397.22
2022-12-31T19:55:52.803Z,100398.20
2022-12-31T19:58:22.128Z,100400.44
2022-12-31T20:00:55.709Z,100397.14
2022-12-31T20:03:25.459Z,100402.60
2022-12-31T20:06:07.074Z,100402.23
2022-12-31T20:08:34.345Z,100404.91
2022-12-31T20:11:11.308Z,100407.08
2022-12-31T20:13:38.181Z,100406.01
2022-12-31T20:16:08.996Z,100407.88
2022-12-31T20:18:37.033Z,100403.84
2022-12-31T20:21:03.870Z,100403.16
2022-12-31T20:23:33.569Z,100403.90
2022-12-31T20:26:00.630Z,100409.23
2022-12-31T20:28:27.121Z,100405.87
2022-12-31T20:30:54.090Z,100411.91
2022-12-31T20:33:20.888Z,100413.40
2022-12-31T20:35:47.498Z,100413.59
2022-12-31T20:38:14.385Z,100418.61
2022-12-31T20:40:46.452Z,100421.16
2022-12-31T20:43:13.628Z,100424.05
2022-12-31T20:45:40.911Z,100418.39
2022-12-31T20:48:07.612Z,100414.78
2022-12-31T20:50:34.033Z,100411.42
2022-12-31T20:53:01.348Z,100413.17
2022-12-31T20:55:27.823Z,100409.09
2022-12-31T20:57:54.206Z,100407.02
2022-12-31T21:00:20.889Z,100407.44
2022-12-31T21:02:55.520Z,100405.85
2022-12-31T21:05:24.826Z,100405.67
2022-12-31T21:07:51.368Z,100408.35
2022-12-31T21:10:17.763Z,100407.59
2022-12-31T21:12:44.635Z,100404.39
2022-12-31T21:15:12.314Z,100405.95
2022-12-31T21:17:39.190Z,100407.80
2022-12-31T21:20:06.690Z,100403.66
2022-12-31T21:22:33.097Z,100393.40
2022-12-31T21:25:00.716Z,100392.34
2022-12-31T21:27:28.841Z,100394.15
2022-12-31T21:30:17.657Z,100392.84
2022-12-31T21:32:42.203Z,100393.05
2022-12-31T21:35:41.223Z,100392.47
2022-12-31T21:38:00.606Z,100392.11
2022-12-31T21:40:27.792Z,100392.30
2022-12-31T21:42:54.208Z,100391.98
2022-12-31T21:45:20.782Z,100395.15
2022-12-31T21:48:05.710Z,100395.66
2022-12-31T21:50:33.112Z,100399.64
2022-12-31T21:52:59.470Z,100401.77
2022-12-31T21:55:44.805Z,100399.36
2022-12-31T21:58:28.077Z,100406.09
2022-12-31T22:01:14.930Z,100408.45
2022-12-31T22:03:42.129Z,100410.61
2022-12-31T22:06:22.616Z,100417.16
2022-12-31T22:08:54.470Z,100419.42
2022-12-31T22:11:24.010Z,100422.85
2022-12-31T22:13:50.664Z,100419.79
2022-12-31T22:16:18.454Z,100411.70
2022-12-31T22:18:45.695Z,100408.73
2022-12-31T22:21:18.794Z,100405.92
2022-12-31T22:23:53.833Z,100407.38
2022-12-31T22:26:26.092Z,100404.42
2022-12-31T22:28:53.984Z,100403.75
2022-12-31T22:31:24.283Z,100407.24
2022-12-31T22:33:51.061Z,100402.67
2022-12-31T22:36:18.472Z,100406.83
2022-12-31T22:38:45.403Z,100410.58
2022-12-31T22:41:17.868Z,100411.03
2022-12-31T22:43:50.527Z,100408.08
2022-12-31T22:46:25.440Z,100409.88
2022-12-31T22:48:53.435Z,100416.69
2022-12-31T22:51:20.524Z,100415.55
2022-12-31T22:53:47.027Z,100419.11
2022-12-31T22:56:15.756Z,100418.59
2022-12-31T22:58:42.607Z,100413.03
2022-12-31T23:01:21.293Z,100414.70
2022-12-31T23:03:49.450Z,100418.23
2022-12-31T23:06:16.428Z,100419.17
2022-12-31T23:09:05.763Z,100418.43
2022-12-31T23:11:34.353Z,100419.03
2022-12-31T23:14:20.165Z,100424.93
2022-12-31T23:17:30.790Z,100427.37
2022-12-31T23:20:10.152Z,100424.61
2022-12-31T23:22:55.438Z,100415.73
2022-12-31T23:25:21.809Z,100417.13
2022-12-31T23:27:48.601Z,100411.93
2022-12-31T23:30:15.023Z,100410.26
2022-12-31T23:32:41.394Z,100406.42
2022-12-31T23:35:10.016Z,100406.38
2022-12-31T23:37:36.774Z,100402.14
2022-12-31T23:40:03.450Z,100398.10
2022-12-31T23:42:30.337Z,100399.73
2022-12-31T23:44:56.758Z,100405.08
2022-12-31T23:47:23.220Z,100408.86
2022-12-31T23:49:49.882Z,100414.50
2022-12-31T23:52:16.247Z,100413.48
2022-12-31T23:54:42.761Z,100418.83
2022-12-31T23:57:09.913Z,100423.38
2022-12-31T23:59:37.419Z,100433.00
